createdAt,value
2017-08-02T00:02:20.202Z,13.17
2017-08-02T00:04:48.146Z,14.60
2017-08-02T00:07:15.674Z,16.47
2017-08-02T00:09:43.228Z,15.10
2017-08-02T00:12:10.801Z,14.80
2017-08-02T00:14:38.353Z,17.87
2017-08-02T00:17:06.269Z,16.40
2017-08-02T00:19:33.812Z,14.90
2017-08-02T00:22:02.206Z,15.83
2017-08-02T00:24:29.772Z,14.17
2017-08-02T00:26:57.340Z,13.33
2017-08-02T00:29:25.198Z,12.43
2017-08-02T00:31:52.739Z,13.17
2017-08-02T00:34:20.292Z,13.43
2017-08-02T00:36:47.836Z,13.83
2017-08-02T00:39:15.367Z,14.00
2017-08-02T00:41:43.218Z,13.20
2017-08-02T00:44:10.749Z,14.17
2017-08-02T00:46:38.335Z,12.40
2017-08-02T00:49:05.884Z,14.13
2017-08-02T00:51:33.424Z,13.30
2017-08-02T00:54:01.302Z,12.97
2017-08-02T00:56:28.865Z,13.13
2017-08-02T00:58:56.409Z,13.77
2017-08-02T01:01:23.954Z,19.67
2017-08-02T01:03:51.717Z,14.67
2017-08-02T01:06:19.917Z,13.07
2017-08-02T01:08:47.461Z,13.23
2017-08-02T01:11:15.004Z,13.80
2017-08-02T01:13:42.574Z,13.60
2017-08-02T01:16:10.139Z,16.30
2017-08-02T01:18:38.030Z,18.50
2017-08-02T01:21:05.589Z,14.73
2017-08-02T01:23:33.123Z,16.53
2017-08-02T01:26:00.686Z,15.77
2017-08-02T01:28:28.206Z,13.77
2017-08-02T01:30:56.164Z,16.33
2017-08-02T01:33:24.666Z,16.30
2017-08-02T01:35:52.203Z,14.40
2017-08-02T01:38:19.779Z,15.57
2017-08-02T01:40:47.299Z,14.80
2017-08-02T01:43:15.171Z,15.10
2017-08-02T01:45:42.702Z,14.30
2017-08-02T01:48:10.266Z,13.70
2017-08-02T01:50:37.834Z,14.73
2017-08-02T01:53:05.391Z,14.97
2017-08-02T01:55:33.308Z,12.87
2017-08-02T01:58:00.823Z,16.33
2017-08-02T02:00:28.412Z,15.50
2017-08-02T02:02:56.032Z,12.37
2017-08-02T02:05:24.318Z,13.03
2017-08-02T02:07:52.186Z,15.07
2017-08-02T02:10:19.731Z,13.17
2017-08-02T02:12:48.025Z,14.57
2017-08-02T02:15:15.587Z,14.33
2017-08-02T02:17:43.117Z,14.37
2017-08-02T02:20:11.056Z,14.07
2017-08-02T02:22:38.580Z,14.40
2017-08-02T02:25:06.113Z,15.40
2017-08-02T02:27:34.467Z,14.00
2017-08-02T02:30:01.997Z,13.60
2017-08-02T02:32:29.875Z,13.23
2017-08-02T02:34:57.423Z,14.47
2017-08-02T02:37:24.956Z,15.90
2017-08-02T02:39:53.294Z,15.23
2017-08-02T02:42:20.842Z,13.80
2017-08-02T02:44:48.833Z,12.73
2017-08-02T02:47:16.382Z,13.23
2017-08-02T02:49:43.899Z,13.50
2017-08-02T02:52:11.471Z,13.30
2017-08-02T02:54:39.025Z,14.00
2017-08-02T02:57:06.961Z,13.20
2017-08-02T02:59:34.505Z,14.50
2017-08-02T03:02:02.903Z,13.90
2017-08-02T03:04:31.237Z,16.17
2017-08-02T03:06:58.771Z,13.37
2017-08-02T03:09:26.680Z,13.80
2017-08-02T03:11:54.211Z,14.47
2017-08-02T03:14:21.803Z,15.73
2017-08-02T03:16:49.386Z,15.10
2017-08-02T03:19:17.689Z,14.00
2017-08-02T03:21:45.543Z,13.70
2017-08-02T03:24:13.851Z,19.80
2017-08-02T03:26:41.391Z,14.10
2017-08-02T03:29:08.984Z,14.10
2017-08-02T03:31:36.541Z,13.70
2017-08-02T03:34:04.428Z,12.50
2017-08-02T03:36:31.951Z,13.70
2017-08-02T03:38:59.471Z,13.20
2017-08-02T03:41:27.874Z,14.87
2017-08-02T03:43:56.178Z,13.10
2017-08-02T03:46:24.020Z,13.10
2017-08-02T03:48:51.560Z,14.07
2017-08-02T03:51:19.096Z,12.43
2017-08-02T03:53:46.673Z,13.33
2017-08-02T03:56:14.225Z,12.60
2017-08-02T03:58:42.085Z,14.90
2017-08-02T04:01:09.613Z,13.77
2017-08-02T04:03:37.157Z,14.53
2017-08-02T04:06:04.733Z,14.07
2017-08-02T04:08:32.264Z,15.53
2017-08-02T04:11:00.916Z,12.60
2017-08-02T04:13:28.472Z,12.90
2017-08-02T04:15:56.018Z,13.63
2017-08-02T04:18:23.567Z,14.70
2017-08-02T04:20:51.128Z,13.70
2017-08-02T04:23:19.028Z,12.70
2017-08-02T04:25:46.552Z,14.80
2017-08-02T04:28:14.127Z,13.90
2017-08-02T04:30:41.685Z,13.67
2017-08-02T04:33:09.208Z,12.70
2017-08-02T04:35:44.814Z,15.63
2017-08-02T04:38:12.349Z,18.00
2017-08-02T04:40:41.095Z,14.43
2017-08-02T04:43:08.689Z,20.97
2017-08-02T04:45:36.218Z,16.97
2017-08-02T04:48:04.881Z,13.67
2017-08-02T04:50:38.191Z,13.20
2017-08-02T04:53:15.744Z,13.50
2017-08-02T04:55:43.312Z,14.53
2017-08-02T04:58:10.868Z,13.37
2017-08-02T05:00:38.421Z,13.40
2017-08-02T05:03:16.373Z,12.53
2017-08-02T05:05:44.236Z,12.00
2017-08-02T05:08:15.730Z,14.33
2017-08-02T05:10:43.281Z,12.87
2017-08-02T05:13:11.684Z,11.20
2017-08-02T05:15:39.250Z,11.30
2017-08-02T05:18:07.999Z,10.60
2017-08-02T05:20:35.527Z,13.37
2017-08-02T05:23:03.053Z,11.67
2017-08-02T05:25:30.624Z,12.50
2017-08-02T05:27:58.153Z,11.90
2017-08-02T05:30:26.020Z,11.50
2017-08-02T05:32:53.633Z,9.87
2017-08-02T05:35:21.163Z,10.60
2017-08-02T05:37:48.777Z,10.97
2017-08-02T05:40:16.318Z,10.00
2017-08-02T05:42:44.147Z,12.97
2017-08-02T05:45:12.430Z,9.10
2017-08-02T05:47:50.192Z,8.77
2017-08-02T05:50:17.711Z,9.13
2017-08-02T05:52:45.245Z,9.43
2017-08-02T05:55:12.791Z,10.43
2017-08-02T05:57:40.339Z,10.50
2017-08-02T06:00:08.154Z,8.27
2017-08-02T06:02:35.676Z,9.13
2017-08-02T06:05:03.209Z,11.70
2017-08-02T06:07:30.793Z,9.70
2017-08-02T06:09:58.325Z,8.80
2017-08-02T06:12:26.973Z,10.80
2017-08-02T06:14:54.499Z,8.70
2017-08-02T06:17:22.469Z,12.83
2017-08-02T06:19:50.027Z,8.20
2017-08-02T06:22:18.329Z,11.60
2017-08-02T06:24:46.137Z,8.50
2017-08-02T06:27:13.649Z,8.80
2017-08-02T06:29:41.164Z,9.67
2017-08-02T06:32:09.486Z,9.07
2017-08-02T06:34:37.006Z,7.80
2017-08-02T06:37:05.641Z,9.47
2017-08-02T06:39:33.204Z,8.23
2017-08-02T06:42:00.732Z,6.93
2017-08-02T06:44:28.292Z,7.83
2017-08-02T06:47:05.695Z,8.10
2017-08-02T06:49:33.539Z,9.33
2017-08-02T06:52:02.067Z,8.57
2017-08-02T06:54:29.721Z,11.80
2017-08-02T06:56:57.288Z,10.13
2017-08-02T06:59:24.855Z,7.23
2017-08-02T07:01:52.673Z,7.60
2017-08-02T07:04:20.267Z,8.00
2017-08-02T07:06:47.795Z,7.20
2017-08-02T07:09:16.197Z,7.47
2017-08-02T07:11:43.829Z,8.13
2017-08-02T07:14:12.631Z,9.20
2017-08-02T07:16:40.914Z,10.23
2017-08-02T07:19:08.455Z,6.70
2017-08-02T07:21:36.049Z,10.20
2017-08-02T07:24:03.581Z,7.73
2017-08-02T07:26:32.228Z,7.20
2017-08-02T07:28:59.749Z,7.30
2017-08-02T07:31:27.274Z,7.20
2017-08-02T07:33:54.828Z,6.17
2017-08-02T07:36:22.328Z,6.73
2017-08-02T07:38:50.245Z,7.57
2017-08-02T07:41:17.794Z,6.93
2017-08-02T07:43:46.024Z,6.30
2017-08-02T07:46:14.362Z,7.13
2017-08-02T07:48:41.930Z,7.80
2017-08-02T07:51:09.822Z,9.20
2017-08-02T07:53:37.338Z,7.00
2017-08-02T07:56:04.877Z,7.67
2017-08-02T07:58:32.449Z,6.70
2017-08-02T08:01:00.067Z,6.30
2017-08-02T08:03:28.858Z,6.97
2017-08-02T08:05:57.160Z,7.27
2017-08-02T08:08:24.707Z,9.37
2017-08-02T08:10:53.042Z,6.20
2017-08-02T08:13:20.576Z,7.30
2017-08-02T08:15:48.430Z,6.33
2017-08-02T08:18:16.264Z,5.63
2017-08-02T08:20:44.552Z,5.20
2017-08-02T08:23:12.895Z,4.43
2017-08-02T08:25:40.443Z,4.77
2017-08-02T08:28:08.286Z,4.43
2017-08-02T08:30:35.820Z,4.03
2017-08-02T08:33:04.138Z,7.40
2017-08-02T08:35:31.698Z,4.87
2017-08-02T08:37:59.226Z,13.73
2017-08-02T08:40:27.167Z,4.53
2017-08-02T08:42:54.734Z,5.90
2017-08-02T08:45:22.287Z,5.43
2017-08-02T08:47:49.844Z,8.30
2017-08-02T08:50:17.375Z,8.17
2017-08-02T08:52:45.246Z,4.87
2017-08-02T08:55:12.760Z,5.30
2017-08-02T08:57:40.299Z,6.73
2017-08-02T09:00:07.885Z,5.07
2017-08-02T09:02:35.412Z,5.10
2017-08-02T09:05:03.260Z,5.20
2017-08-02T09:07:30.802Z,5.73
2017-08-02T09:09:58.338Z,5.20
2017-08-02T09:12:25.927Z,6.17
2017-08-02T09:14:53.449Z,5.47
2017-08-02T09:17:21.341Z,6.07
2017-08-02T09:19:48.900Z,6.77
2017-08-02T09:22:16.444Z,6.50
2017-08-02T09:24:44.033Z,6.00
2017-08-02T09:27:11.557Z,5.20
2017-08-02T09:29:39.375Z,6.10
2017-08-02T09:32:06.897Z,5.60
2017-08-02T09:34:34.466Z,5.67
2017-08-02T09:37:02.011Z,6.00
2017-08-02T09:39:30.217Z,6.10
2017-08-02T09:41:58.127Z,4.90
2017-08-02T09:44:25.670Z,5.37
2017-08-02T09:46:53.188Z,6.37
2017-08-02T09:49:20.749Z,5.80
2017-08-02T09:51:48.299Z,6.07
2017-08-02T09:54:16.205Z,5.40
2017-08-02T09:56:43.710Z,6.03
2017-08-02T09:59:12.023Z,5.57
2017-08-02T10:01:39.613Z,7.87
2017-08-02T10:04:07.147Z,6.43
2017-08-02T10:06:35.007Z,6.33
2017-08-02T10:09:02.578Z,5.83
2017-08-02T10:11:30.169Z,6.00
2017-08-02T10:13:57.760Z,5.70
2017-08-02T10:16:26.091Z,5.77
2017-08-02T10:18:53.924Z,6.77
2017-08-02T10:21:21.475Z,6.03
2017-08-02T10:23:49.769Z,6.50
2017-08-02T10:26:17.353Z,6.60
2017-08-02T10:28:44.897Z,6.23
2017-08-02T10:31:12.775Z,6.30
2017-08-02T10:33:40.299Z,6.20
2017-08-02T10:36:07.856Z,5.60
2017-08-02T10:38:36.215Z,6.17
2017-08-02T10:41:03.771Z,6.73
2017-08-02T10:43:31.743Z,8.00
2017-08-02T10:45:59.336Z,7.50
2017-08-02T10:48:27.648Z,5.60
2017-08-02T10:50:55.421Z,6.40
2017-08-02T10:53:22.975Z,5.57
2017-08-02T10:55:50.829Z,5.37
2017-08-02T10:58:18.398Z,6.07
2017-08-02T11:00:45.937Z,6.00
2017-08-02T11:03:14.111Z,6.00
2017-08-02T11:05:41.676Z,6.13
2017-08-02T11:08:09.605Z,8.10
2017-08-02T11:10:37.175Z,6.17
2017-08-02T11:13:05.488Z,6.13
2017-08-02T11:15:33.085Z,5.23
2017-08-02T11:18:00.709Z,6.00
2017-08-02T11:20:28.615Z,5.83
2017-08-02T11:22:56.164Z,5.30
2017-08-02T11:25:23.704Z,5.40
2017-08-02T11:27:51.248Z,5.30
2017-08-02T11:30:19.565Z,6.20
2017-08-02T11:32:47.430Z,6.27
2017-08-02T11:35:16.898Z,6.50
2017-08-02T11:37:45.377Z,6.83
2017-08-02T11:40:12.932Z,19.70
2017-08-02T11:42:48.061Z,16.90
2017-08-02T11:45:15.997Z,14.90
2017-08-02T11:47:43.606Z,10.27
2017-08-02T11:50:27.702Z,10.47
2017-08-02T11:52:57.161Z,9.67
2017-08-02T11:55:25.940Z,5.63
2017-08-02T11:57:54.246Z,5.97
2017-08-02T12:00:21.777Z,7.50
2017-08-02T12:02:51.083Z,7.30
2017-08-02T12:05:19.393Z,5.77
2017-08-02T12:07:47.244Z,8.63
2017-08-02T12:10:15.573Z,6.70
2017-08-02T12:12:43.128Z,7.57
2017-08-02T12:15:10.718Z,6.50
2017-08-02T12:17:40.241Z,6.83
2017-08-02T12:20:08.844Z,7.13
2017-08-02T12:22:36.415Z,6.37
2017-08-02T12:25:04.088Z,6.83
2017-08-02T12:27:31.936Z,8.03
2017-08-02T12:29:59.465Z,6.07
2017-08-02T12:32:28.523Z,6.93
2017-08-02T12:34:56.055Z,6.87
2017-08-02T12:37:23.587Z,6.23
2017-08-02T12:39:51.939Z,6.50
2017-08-02T12:42:19.488Z,5.90
2017-08-02T12:44:47.378Z,5.83
2017-08-02T12:47:14.925Z,6.77
2017-08-02T12:49:42.482Z,6.00
2017-08-02T12:52:10.104Z,5.47
2017-08-02T12:54:37.639Z,5.70
2017-08-02T12:57:06.217Z,5.77
2017-08-02T12:59:33.741Z,6.30
2017-08-02T13:02:01.249Z,5.53
2017-08-02T13:04:28.803Z,5.47
2017-08-02T13:06:56.328Z,5.30
2017-08-02T13:09:24.201Z,5.47
2017-08-02T13:11:51.723Z,6.20
2017-08-02T13:14:19.335Z,6.37
2017-08-02T13:16:46.877Z,5.87
2017-08-02T13:19:17.851Z,5.43
2017-08-02T13:21:45.694Z,5.97
2017-08-02T13:24:13.252Z,5.73
2017-08-02T13:29:34.325Z,6.40
2017-08-02T13:32:02.180Z,5.50
2017-08-02T13:34:30.472Z,6.27
2017-08-02T13:36:58.026Z,6.60
2017-08-02T13:39:26.359Z,6.03
2017-08-02T13:41:54.491Z,5.30
2017-08-02T13:44:22.541Z,6.10
2017-08-02T13:46:50.063Z,5.87
2017-08-02T13:49:17.735Z,6.20
2017-08-02T13:51:45.434Z,5.73
2017-08-02T13:54:13.070Z,6.63
2017-08-02T13:56:41.046Z,6.43
2017-08-02T13:59:08.576Z,6.20
2017-08-02T14:01:36.131Z,5.83
2017-08-02T14:04:03.711Z,6.40
2017-08-02T14:06:31.247Z,6.83
2017-08-02T14:08:59.071Z,6.57
2017-08-02T14:11:27.355Z,6.33
2017-08-02T14:13:55.650Z,6.50
2017-08-02T14:16:23.334Z,6.57
2017-08-02T14:18:50.998Z,7.60
2017-08-02T14:21:18.837Z,6.17
2017-08-02T14:23:46.392Z,7.00
2017-08-02T14:26:13.917Z,7.30
2017-08-02T14:28:41.505Z,7.00
2017-08-02T14:31:09.817Z,6.80
2017-08-02T14:33:37.694Z,7.83
2017-08-02T14:36:05.233Z,7.50
2017-08-02T14:38:32.769Z,7.30
2017-08-02T14:41:01.194Z,6.23
2017-08-02T14:43:28.735Z,7.37
2017-08-02T14:45:56.641Z,6.10
2017-08-02T14:48:24.185Z,7.27
2017-08-02T14:50:51.721Z,6.43
2017-08-02T14:53:19.575Z,6.27
2017-08-02T14:55:47.280Z,7.00
2017-08-02T14:58:15.185Z,6.60
2017-08-02T15:00:42.749Z,6.83
2017-08-02T15:03:10.282Z,6.80
2017-08-02T15:05:37.855Z,6.70
2017-08-02T15:08:05.410Z,8.90
2017-08-02T15:10:34.270Z,9.83
2017-08-02T15:13:01.825Z,6.87
2017-08-02T15:15:29.336Z,6.63
2017-08-02T15:17:56.900Z,5.83
2017-08-02T15:20:24.427Z,6.50
2017-08-02T15:22:52.298Z,6.07
2017-08-02T15:25:19.875Z,6.07
2017-08-02T15:27:47.421Z,6.30
2017-08-02T15:30:14.976Z,6.43
2017-08-02T15:32:42.510Z,6.90
2017-08-02T15:35:10.408Z,6.53
2017-08-02T15:37:37.988Z,6.83
2017-08-02T15:40:05.544Z,5.97
2017-08-02T15:42:33.153Z,6.00
2017-08-02T15:45:00.689Z,6.33
2017-08-02T15:47:28.556Z,6.50
2017-08-02T15:49:56.099Z,5.67
2017-08-02T15:52:27.927Z,7.03
2017-08-02T15:54:55.463Z,6.10
2017-08-02T15:57:23.026Z,6.80
2017-08-02T15:59:50.862Z,6.03
2017-08-02T16:02:18.420Z,6.53
2017-08-02T16:04:46.741Z,6.83
2017-08-02T16:07:18.793Z,6.77
2017-08-02T16:09:46.334Z,7.13
2017-08-02T16:12:14.188Z,6.47
2017-08-02T16:14:41.715Z,6.90
2017-08-02T16:17:10.244Z,7.17
2017-08-02T16:19:38.604Z,7.10
2017-08-02T16:22:16.404Z,6.83
2017-08-02T16:24:44.348Z,8.00
2017-08-02T16:27:15.932Z,6.97
2017-08-02T16:29:43.784Z,7.30
2017-08-02T16:32:12.325Z,5.80
2017-08-02T16:34:39.861Z,7.57
2017-08-02T16:37:07.432Z,7.27
2017-08-02T16:39:35.760Z,6.40
2017-08-02T16:42:05.703Z,6.40
2017-08-02T16:44:33.230Z,7.10
2017-08-02T16:47:00.771Z,7.00
2017-08-02T16:49:28.581Z,6.50
2017-08-02T16:51:56.198Z,6.47
2017-08-02T16:54:25.073Z,7.53
2017-08-02T16:56:52.613Z,6.50
2017-08-02T16:59:20.137Z,6.53
2017-08-02T17:01:55.519Z,6.23
2017-08-02T17:04:25.786Z,7.50
2017-08-02T17:06:54.497Z,7.07
2017-08-02T17:09:22.049Z,6.97
2017-08-02T17:11:50.594Z,6.50
2017-08-02T17:14:18.168Z,6.93
2017-08-02T17:16:45.701Z,5.80
2017-08-02T17:19:13.790Z,6.97
2017-08-02T17:21:41.387Z,6.27
2017-08-02T17:24:08.912Z,7.30
2017-08-02T17:26:36.497Z,7.07
2017-08-02T17:29:04.085Z,6.93
2017-08-02T17:31:31.941Z,7.20
2017-08-02T17:33:59.494Z,5.97
2017-08-02T17:36:27.062Z,6.27
2017-08-02T17:38:54.636Z,6.80
2017-08-02T17:41:23.016Z,7.20
2017-08-02T17:43:50.904Z,6.40
2017-08-02T17:46:18.481Z,6.97
2017-08-02T17:48:46.026Z,7.37
2017-08-02T17:51:13.624Z,6.53
2017-08-02T17:53:41.236Z,7.60
2017-08-02T17:56:09.278Z,7.57
2017-08-02T17:58:37.630Z,9.47
2017-08-02T18:01:05.189Z,12.43
2017-08-02T18:03:32.799Z,9.70
2017-08-02T18:06:00.425Z,8.90
2017-08-02T18:08:29.144Z,8.33
2017-08-02T18:10:56.852Z,8.77
2017-08-02T18:13:24.469Z,9.33
2017-08-02T18:15:52.790Z,14.63
2017-08-02T18:18:20.398Z,12.63
2017-08-02T18:20:48.400Z,11.23
2017-08-02T18:23:15.991Z,11.10
2017-08-02T18:25:44.469Z,9.67
2017-08-02T18:28:12.510Z,9.53
2017-08-02T18:30:40.183Z,9.50
2017-08-02T18:33:08.336Z,9.87
2017-08-02T18:35:35.911Z,9.00
2017-08-02T18:38:03.463Z,11.57
2017-08-02T18:40:31.137Z,9.90
2017-08-02T18:42:58.729Z,9.83
2017-08-02T18:45:26.644Z,11.27
2017-08-02T18:47:54.197Z,11.07
2017-08-02T18:50:21.749Z,11.00
2017-08-02T18:52:49.386Z,10.63
2017-08-02T18:55:16.980Z,12.00
2017-08-02T18:57:51.531Z,10.93
2017-08-02T19:00:19.186Z,10.90
2017-08-02T19:02:46.718Z,9.63
2017-08-02T19:05:14.355Z,12.70
2017-08-02T19:07:41.945Z,11.37
2017-08-02T19:10:09.838Z,11.00
2017-08-02T19:12:38.402Z,12.23
2017-08-02T19:15:06.045Z,11.50
2017-08-02T19:17:33.664Z,12.90
2017-08-02T19:20:01.273Z,11.10
2017-08-02T19:22:29.219Z,11.80
2017-08-02T19:24:56.793Z,11.63
2017-08-02T19:27:24.375Z,13.63
2017-08-02T19:29:52.047Z,12.83
2017-08-02T19:32:21.807Z,13.40
2017-08-02T19:34:49.758Z,12.33
2017-08-02T19:37:17.364Z,12.27
2017-08-02T19:39:45.217Z,12.60
2017-08-02T19:42:12.851Z,11.90
2017-08-02T19:44:40.462Z,13.50
2017-08-02T19:47:09.414Z,15.90
2017-08-02T19:49:41.100Z,18.00
2017-08-02T19:52:09.106Z,13.90
2017-08-02T19:54:38.621Z,12.57
2017-08-02T19:57:06.304Z,12.40
2017-08-02T19:59:35.272Z,11.60
2017-08-02T20:02:02.977Z,13.07
2017-08-02T20:04:30.902Z,12.10
2017-08-02T20:06:58.458Z,12.50
2017-08-02T20:09:26.050Z,11.67
2017-08-02T20:11:53.655Z,12.07
2017-08-02T20:14:21.242Z,12.03
2017-08-02T20:16:49.172Z,12.77
2017-08-02T20:19:16.860Z,12.10
2017-08-02T20:21:44.492Z,12.77
2017-08-02T20:24:12.087Z,11.93
2017-08-02T20:26:39.674Z,11.03
2017-08-02T20:29:12.600Z,12.03
2017-08-02T20:31:41.002Z,11.70
2017-08-02T20:34:08.600Z,11.67
2017-08-02T20:36:36.181Z,11.90
2017-08-02T20:39:03.733Z,13.40
2017-08-02T20:41:35.688Z,12.47
2017-08-02T20:44:03.231Z,11.10
2017-08-02T20:46:30.781Z,11.20
2017-08-02T20:48:58.385Z,13.03
2017-08-02T20:51:25.970Z,11.30
2017-08-02T20:53:53.922Z,12.40
2017-08-02T20:56:21.447Z,12.33
2017-08-02T20:58:48.996Z,12.30
2017-08-02T21:01:16.568Z,12.47
2017-08-02T21:03:45.080Z,11.57
2017-08-02T21:06:23.896Z,11.90
2017-08-02T21:08:52.082Z,12.73
2017-08-02T21:11:19.710Z,12.20
2017-08-02T21:13:47.276Z,12.70
2017-08-02T21:16:14.800Z,11.80
2017-08-02T21:18:42.714Z,12.93
2017-08-02T21:21:10.268Z,12.43
2017-08-02T21:23:38.830Z,12.30
2017-08-02T21:26:06.505Z,12.60
2017-08-02T21:28:34.110Z,11.93
2017-08-02T21:31:02.225Z,15.00
2017-08-02T21:33:29.781Z,13.60
2017-08-02T21:35:57.323Z,13.27
2017-08-02T21:38:26.772Z,13.20
2017-08-02T21:40:54.357Z,14.33
2017-08-02T21:43:27.158Z,14.53
2017-08-02T21:45:55.478Z,14.77
2017-08-02T21:48:23.074Z,12.57
2017-08-02T21:50:50.655Z,13.33
2017-08-02T21:53:18.196Z,13.90
2017-08-02T21:55:52.858Z,13.67
2017-08-02T21:58:20.443Z,13.43
2017-08-02T22:00:48.020Z,13.00
2017-08-02T22:03:17.559Z,13.83
2017-08-02T22:05:45.212Z,12.70
2017-08-02T22:08:13.090Z,13.67
2017-08-02T22:10:40.623Z,12.07
2017-08-02T22:13:08.240Z,13.20
2017-08-02T22:15:36.570Z,13.03
2017-08-02T22:18:04.175Z,12.80
2017-08-02T22:20:32.053Z,14.57
2017-08-02T22:23:00.371Z,14.87
2017-08-02T22:25:27.941Z,13.63
2017-08-02T22:27:55.561Z,14.03
2017-08-02T22:30:23.862Z,14.50
2017-08-02T22:32:53.667Z,14.13
2017-08-02T22:35:21.221Z,16.47
2017-08-02T22:37:48.769Z,15.17
2017-08-02T22:40:16.370Z,15.20
2017-08-02T22:42:44.983Z,16.87
2017-08-02T22:45:12.881Z,18.27
2017-08-02T22:47:41.191Z,16.20
2017-08-02T22:50:08.754Z,15.57
2017-08-02T22:52:43.441Z,15.90
2017-08-02T22:55:10.970Z,15.77
2017-08-02T22:57:38.828Z,15.90
2017-08-02T23:00:06.363Z,15.50
2017-08-02T23:02:34.871Z,14.80
2017-08-02T23:05:02.454Z,15.33
2017-08-02T23:07:30.012Z,16.27
2017-08-02T23:09:57.978Z,18.37
2017-08-02T23:12:36.542Z,15.80
2017-08-02T23:15:04.397Z,15.37
2017-08-02T23:17:31.944Z,15.93
2017-08-02T23:19:59.482Z,15.40
2017-08-02T23:22:27.055Z,14.73
2017-08-02T23:24:54.592Z,16.40
2017-08-02T23:27:22.440Z,16.30
2017-08-02T23:29:50.025Z,16.03
2017-08-02T23:32:18.563Z,15.67
2017-08-02T23:34:46.132Z,15.00
2017-08-02T23:37:13.731Z,15.97
2017-08-02T23:39:41.600Z,15.17
2017-08-02T23:42:09.133Z,16.00
2017-08-02T23:44:36.668Z,15.10
2017-08-02T23:47:21.392Z,15.87
2017-08-02T23:49:48.949Z,16.07
2017-08-02T23:52:16.876Z,14.93
2017-08-02T23:54:44.423Z,14.83
2017-08-02T23:57:11.985Z,15.07
2017-08-02T23:59:39.585Z,17.60
